Time;durP1;ratioP1;P1;durP2;ratioP2;P2;SDS_P1;SDS_P2;PMS_P1;PMS_P2;Temp;Humidity;BMP_temperature;BMP_pressure;BME280_temperature;BME280_humidity;BME280_pressure;Samples;Min_cycle;Max_cycle;Signal;HPM_P1;HPM_P2
2022/01/23 00:02:40;;;;;;;7.20;2.40;;;;;;;-6.13;62.02;94196.03;5023537;28;20105;-78
2022/01/23 00:04:47;;;;;;;6.00;2.60;;;;;;;-6.13;62.16;94216.78;5023137;28;20026;-77
2022/01/23 00:07:14;;;;;;;6.20;2.03;;;;;;;-6.13;62.41;94213.41;5023419;28;20370;-77
2022/01/23 00:09:41;;;;;;;4.57;2.05;;;;;;;-6.10;62.64;94215.59;5023376;28;20017;-76
2022/01/23 00:12:12;;;;;;;6.63;2.30;;;;;;;-6.03;62.62;94226.75;5023221;28;20100;-76
2022/01/23 00:17:24;;;;;;;6.28;2.60;;;;;;;-6.08;63.07;94217.00;5023242;28;20101;-77
2022/01/23 00:19:59;;;;;;;8.32;2.67;;;;;;;-6.05;62.92;94213.19;5023367;28;20111;-76
2022/01/23 00:22:53;;;;;;;5.38;2.28;;;;;;;-6.06;63.70;94222.00;5023181;28;20032;-77
2022/01/23 00:30:45;;;;;;;5.97;2.20;;;;;;;-6.00;64.22;94226.38;5023026;28;20048;-76
2022/01/23 00:33:12;;;;;;;5.13;2.42;;;;;;;-5.99;63.81;94227.97;5023162;28;20022;-76
2022/01/23 00:35:40;;;;;;;5.55;2.33;;;;;;;-6.03;64.06;94225.97;5021785;28;20252;-77
2022/01/23 00:38:06;;;;;;;4.63;2.00;;;;;;;-6.05;63.86;94233.94;5022816;28;20025;-76
2022/01/23 00:40:34;;;;;;;7.40;2.72;;;;;;;-6.03;63.89;94231.97;5022936;28;20030;-75
2022/01/23 00:43:08;;;;;;;14.15;2.92;;;;;;;-5.98;64.39;94229.56;5023038;28;20211;-75
2022/01/23 00:45:35;;;;;;;6.03;2.38;;;;;;;-5.93;64.41;94227.13;5022817;28;20034;-76
2022/01/23 00:48:08;;;;;;;7.35;2.38;;;;;;;-5.92;64.69;94218.34;5022898;28;20110;-76
2022/01/23 00:50:39;;;;;;;4.43;2.25;;;;;;;-5.95;64.86;94221.38;5022905;28;20232;-76
2022/01/23 00:53:10;;;;;;;5.43;2.30;;;;;;;-5.95;64.68;94225.75;5022747;28;20042;-76
2022/01/23 00:55:41;;;;;;;4.28;2.20;;;;;;;-5.93;65.04;94234.91;5022748;28;20026;-76
2022/01/23 00:58:08;;;;;;;7.72;2.17;;;;;;;-5.94;65.22;94232.50;5022622;28;20026;-76
2022/01/23 01:00:34;;;;;;;4.57;2.45;;;;;;;-6.01;65.41;94223.97;5037200;28;20029;-76
2022/01/23 01:02:59;;;;;;;8.30;3.35;;;;;;;-5.98;65.61;94223.56;5022705;28;20228;-75
2022/01/23 01:05:26;;;;;;;6.50;2.00;;;;;;;-6.08;65.95;94221.41;5022586;28;20359;-75
2022/01/23 01:07:56;;;;;;;6.03;2.35;;;;;;;-6.05;65.89;94218.38;5022780;28;20021;-75
2022/01/23 01:10:28;;;;;;;3.65;2.00;;;;;;;-6.07;66.07;94215.97;5022622;28;20026;-75
2022/01/23 01:12:58;;;;;;;6.72;2.83;;;;;;;-6.04;66.56;94225.19;5022567;28;20093;-75
2022/01/23 01:15:33;;;;;;;4.15;2.13;;;;;;;-6.04;66.79;94230.38;5021151;28;20316;-75
2022/01/23 01:31:43;;;;;;;7.40;2.50;;;;;;;-6.15;67.30;94238.75;5022487;28;20057;-75
2022/01/23 01:39:00;;;;;;;6.10;2.25;;;;;;;-6.13;67.36;94228.97;5022342;28;20014;-75
2022/01/23 01:41:26;;;;;;;5.68;2.30;;;;;;;-6.08;67.44;94224.00;5022189;28;20022;-75
2022/01/23 01:43:52;;;;;;;7.05;2.72;;;;;;;-6.09;67.16;94217.19;5022297;28;20053;-75
2022/01/23 01:46:18;;;;;;;5.50;1.75;;;;;;;-6.17;67.09;94214.81;5022223;28;20026;-75
2022/01/23 01:48:44;;;;;;;5.70;2.53;;;;;;;-6.24;67.30;94229.59;5022288;28;20080;-75
2022/01/23 01:51:14;;;;;;;6.40;2.70;;;;;;;-6.28;67.42;94224.78;5022177;28;20037;-75
2022/01/23 01:53:46;;;;;;;7.18;2.72;;;;;;;-6.35;67.99;94218.81;5022158;28;20077;-75
2022/01/23 01:56:12;;;;;;;9.77;2.47;;;;;;;-6.40;68.08;94226.38;5022143;28;20060;-75
2022/01/23 02:09:22;;;;;;;7.50;3.53;;;;;;;-6.27;67.54;94231.59;5022121;28;20037;-76
2022/01/23 02:12:09;;;;;;;7.80;3.13;;;;;;;-6.25;67.02;94226.19;5024834;28;20312;-76
2022/01/23 02:23:27;;;;;;;6.95;3.00;;;;;;;-6.41;67.23;94231.75;5025527;28;20068;-77
2022/01/23 02:55:26;;;;;;;7.05;3.47;;;;;;;-6.68;66.48;94262.84;5024818;28;20018;-76
2022/01/23 02:57:58;;;;;;;16.63;2.90;;;;;;;-6.69;66.21;94248.31;5024710;28;20032;-78
2022/01/23 03:00:33;;;;;;;13.25;4.43;;;;;;;-6.72;66.40;94262.44;5024702;28;20049;-78
2022/01/23 03:03:11;;;;;;;8.98;3.20;;;;;;;-6.72;66.54;94259.84;5040030;28;20112;-78
2022/01/23 03:05:39;;;;;;;5.72;3.25;;;;;;;-6.70;66.23;94263.03;5039822;28;20083;-78
2022/01/23 03:08:25;;;;;;;4.65;2.63;;;;;;;-6.72;66.39;94259.84;5023265;28;20053;-78
2022/01/23 03:11:04;;;;;;;5.97;2.92;;;;;;;-6.68;66.10;94266.22;5024660;28;20021;-78
2022/01/23 03:24:31;;;;;;;7.10;3.28;;;;;;;-6.71;65.97;94274.41;5024047;28;20029;-76
2022/01/23 03:29:25;;;;;;;9.73;2.88;;;;;;;-6.72;65.98;94269.41;5024116;28;20099;-76
2022/01/23 03:34:17;;;;;;;5.82;2.85;;;;;;;-6.78;65.51;94281.38;5024230;28;20032;-76
2022/01/23 03:36:43;;;;;;;8.07;3.10;;;;;;;-6.70;65.53;94282.97;5024155;28;20029;-77
2022/01/23 03:39:09;;;;;;;7.03;3.17;;;;;;;-6.76;65.14;94278.59;5024111;28;20038;-76
2022/01/23 03:41:36;;;;;;;8.77;3.40;;;;;;;-6.75;65.03;94286.16;5023847;28;20334;-76
2022/01/23 03:44:04;;;;;;;9.45;3.38;;;;;;;-6.64;65.20;94278.81;5023841;28;20026;-77
2022/01/23 03:46:46;;;;;;;8.25;3.58;;;;;;;-6.68;64.95;94265.44;5023603;28;20342;-76
2022/01/23 03:49:31;;;;;;;5.80;3.05;;;;;;;-6.60;64.86;94286.00;5023750;28;20201;-76
2022/01/23 03:52:05;;;;;;;6.78;2.70;;;;;;;-6.50;64.11;94277.84;5023732;28;20018;-77
2022/01/23 03:54:31;;;;;;;7.88;3.80;;;;;;;-6.57;64.46;94293.41;5023511;28;20013;-77
2022/01/23 03:56:59;;;;;;;8.27;2.72;;;;;;;-6.51;64.32;94281.44;5023664;28;20089;-77
2022/01/23 03:59:25;;;;;;;5.63;2.95;;;;;;;-6.48;63.82;94292.19;5038758;28;20024;-77
2022/01/23 04:01:51;;;;;;;5.80;3.50;;;;;;;-6.52;63.47;94301.38;5023550;28;20025;-77
2022/01/23 04:06:59;;;;;;;5.85;2.45;;;;;;;-6.42;63.75;94300.22;5023496;28;20033;-77
2022/01/23 04:09:25;;;;;;;5.88;3.03;;;;;;;-6.46;63.80;94299.78;5023310;28;20389;-77
2022/01/23 04:11:51;;;;;;;7.80;2.72;;;;;;;-6.48;63.35;94312.16;5023691;28;20122;-77
2022/01/23 04:14:19;;;;;;;6.13;3.55;;;;;;;-6.41;63.58;94301.78;5023220;28;20046;-77
2022/01/23 04:19:19;;;;;;;7.30;3.38;;;;;;;-6.40;62.97;94303.41;5023418;28;20034;-77
2022/01/23 04:59:52;;;;;;;6.75;3.10;;;;;;;-6.43;61.75;94314.97;5022851;28;20116;-76
2022/01/23 05:05:02;;;;;;;9.07;2.85;;;;;;;-6.52;61.47;94316.16;5022605;28;20056;-76
2022/01/23 05:07:29;;;;;;;7.50;3.22;;;;;;;-6.50;61.62;94308.97;5022776;28;20025;-77
2022/01/23 05:09:55;;;;;;;4.90;2.38;;;;;;;-6.56;61.76;94322.72;5022595;28;20022;-76
2022/01/23 05:12:27;;;;;;;6.38;2.72;;;;;;;-6.52;61.82;94316.94;5022649;28;20025;-76
2022/01/23 05:14:53;;;;;;;9.00;2.92;;;;;;;-6.60;61.60;94326.69;5022360;28;20041;-76
2022/01/23 05:17:19;;;;;;;5.72;2.65;;;;;;;-6.55;61.77;94343.28;5022642;28;20028;-77
2022/01/23 05:19:45;;;;;;;8.13;3.08;;;;;;;-6.53;61.64;94330.13;5022520;28;20025;-77
2022/01/23 05:22:37;;;;;;;5.78;2.58;;;;;;;-6.57;61.61;94334.88;5037576;28;20048;-77
2022/01/23 05:27:37;;;;;;;5.10;2.50;;;;;;;-6.57;61.49;94341.84;5022541;28;20109;-77
2022/01/23 05:30:04;;;;;;;5.40;3.03;;;;;;;-6.58;62.05;94340.25;5022411;28;20033;-76
2022/01/23 05:32:38;;;;;;;6.15;3.10;;;;;;;-6.59;61.43;94352.44;5022426;28;20029;-75
2022/01/23 05:35:05;;;;;;;6.97;2.88;;;;;;;-6.58;61.14;94348.84;5022291;28;20211;-76
2022/01/23 05:37:32;;;;;;;5.38;2.38;;;;;;;-6.56;61.52;94351.25;5022275;28;20335;-76
2022/01/23 05:39:57;;;;;;;5.50;2.80;;;;;;;-6.53;61.40;94350.88;5022310;28;20118;-76
2022/01/23 05:42:23;;;;;;;7.10;2.63;;;;;;;-6.52;61.26;94336.88;5037668;28;20022;-76
2022/01/23 05:44:48;;;;;;;5.13;2.33;;;;;;;-6.50;60.93;94342.69;5022308;28;20029;-76
2022/01/23 05:47:14;;;;;;;4.95;2.05;;;;;;;-6.53;61.19;94332.72;5025609;28;20045;-75
2022/01/23 05:49:40;;;;;;;4.35;2.30;;;;;;;-6.58;60.85;94337.66;5041363;28;20029;-75
2022/01/23 05:52:06;;;;;;;6.18;2.72;;;;;;;-6.56;60.83;94330.50;5026013;28;20336;-75
2022/01/23 05:54:32;;;;;;;6.53;2.30;;;;;;;-6.63;60.75;94340.84;5025901;28;20037;-75
2022/01/23 05:56:58;;;;;;;4.13;1.92;;;;;;;-6.67;60.94;94340.44;5025876;28;20223;-75
2022/01/23 05:59:23;;;;;;;8.40;2.55;;;;;;;-6.75;61.05;94338.03;5025695;28;20032;-76
2022/01/23 06:01:54;;;;;;;6.55;2.83;;;;;;;-6.69;60.94;94337.25;5026043;28;20033;-77
2022/01/23 06:04:20;;;;;;;3.95;2.65;;;;;;;-6.70;61.16;94346.00;5025931;28;20045;-77
2022/01/23 06:06:46;;;;;;;7.25;2.60;;;;;;;-6.73;61.42;94346.41;5025573;28;20034;-76
2022/01/23 06:09:12;;;;;;;7.07;2.75;;;;;;;-6.73;61.37;94351.59;5025717;28;20410;-77
2022/01/23 06:11:37;;;;;;;5.78;2.08;;;;;;;-6.74;61.25;94354.38;5025430;28;20022;-77
2022/01/23 06:14:03;;;;;;;11.20;3.17;;;;;;;-6.71;61.38;94352.19;5025394;28;20045;-77
2022/01/23 06:16:28;;;;;;;8.10;3.20;;;;;;;-6.76;61.30;94362.31;5025577;28;20025;-77
2022/01/23 06:18:54;;;;;;;9.07;3.45;;;;;;;-6.70;61.13;94364.16;5025500;28;20097;-77
2022/01/23 06:21:21;;;;;;;5.45;2.65;;;;;;;-6.70;60.90;94364.16;5025494;28;20038;-77
2022/01/23 06:23:54;;;;;;;6.50;2.78;;;;;;;-6.71;61.01;94367.75;5025372;28;20037;-77
2022/01/23 06:26:19;;;;;;;5.28;2.47;;;;;;;-6.64;61.24;94375.53;5025403;28;20040;-78
2022/01/23 06:29:12;;;;;;;6.40;3.47;;;;;;;-6.64;61.13;94377.34;5025286;28;20030;-77
2022/01/23 06:31:39;;;;;;;5.78;3.10;;;;;;;-6.66;61.15;94377.53;5024989;28;20077;-78
2022/01/23 06:34:06;;;;;;;8.07;2.92;;;;;;;-6.59;61.27;94383.56;5025159;28;20018;-77
2022/01/23 06:36:36;;;;;;;11.57;3.42;;;;;;;-6.64;61.49;94369.56;5025066;28;20014;-77
2022/01/23 06:39:04;;;;;;;5.82;3.08;;;;;;;-6.56;61.50;94366.78;5025083;28;20022;-77
2022/01/23 06:41:29;;;;;;;9.43;3.20;;;;;;;-6.48;61.57;94374.41;5025254;28;20026;-77
2022/01/23 06:43:55;;;;;;;7.07;3.10;;;;;;;-6.47;61.54;94366.44;5025013;28;20242;-77
2022/01/23 06:46:20;;;;;;;6.57;3.28;;;;;;;-6.44;61.55;94369.63;5025217;28;20275;-77
2022/01/23 06:48:46;;;;;;;3.80;1.98;;;;;;;-6.48;61.16;94361.44;5024852;28;20022;-77
2022/01/23 06:51:11;;;;;;;10.80;4.15;;;;;;;-6.38;61.22;94372.25;5040055;28;20030;-76
2022/01/23 06:53:36;;;;;;;6.20;3.00;;;;;;;-6.38;60.90;94359.28;5024760;28;20022;-77
2022/01/23 06:56:02;;;;;;;5.43;2.90;;;;;;;-6.37;60.99;94370.44;5024391;28;20026;-77
2022/01/23 06:58:28;;;;;;;8.32;3.08;;;;;;;-6.36;60.71;94367.66;5024761;28;20029;-76
2022/01/23 07:00:53;;;;;;;7.10;3.42;;;;;;;-6.39;60.88;94377.63;5024691;28;20092;-76
2022/01/23 07:03:18;;;;;;;8.65;3.70;;;;;;;-6.36;60.94;94367.66;5024570;28;20022;-76
2022/01/23 07:05:44;;;;;;;10.95;3.67;;;;;;;-6.38;61.65;94374.03;5024423;28;20097;-76
2022/01/23 07:08:09;;;;;;;9.07;3.90;;;;;;;-6.38;61.50;94364.47;5024531;28;20051;-76
2022/01/23 07:10:35;;;;;;;9.73;4.18;;;;;;;-6.39;61.25;94354.28;5024620;28;20021;-76
2022/01/23 07:13:03;;;;;;;9.20;3.90;;;;;;;-6.39;61.67;94365.47;5024312;28;20041;-76
2022/01/23 07:15:28;;;;;;;8.13;3.83;;;;;;;-6.32;61.56;94361.09;5024262;28;20269;-77
2022/01/23 07:17:54;;;;;;;7.72;3.70;;;;;;;-6.28;61.10;94349.31;5024357;28;20056;-78
2022/01/23 07:20:19;;;;;;;9.23;4.15;;;;;;;-6.30;61.62;94372.06;5024430;28;20323;-77
2022/01/23 07:22:45;;;;;;;6.72;3.88;;;;;;;-6.27;61.26;94361.31;5039731;28;20014;-77
2022/01/23 07:25:11;;;;;;;8.88;3.55;;;;;;;-6.17;60.99;94366.09;5024139;28;20220;-77
2022/01/23 07:27:47;;;;;;;9.10;4.32;;;;;;;-6.00;60.67;94379.50;5024153;28;20334;-77
2022/01/23 07:30:25;;;;;;;11.73;4.00;;;;;;;-5.94;60.18;94376.09;5024206;28;20235;-77
2022/01/23 07:32:51;;;;;;;9.43;4.63;;;;;;;-5.93;60.23;94384.69;5024119;28;20048;-77
2022/01/23 07:35:16;;;;;;;16.05;4.78;;;;;;;-5.96;59.94;94370.34;5024207;28;20049;-77
2022/01/23 07:37:42;;;;;;;6.95;4.30;;;;;;;-5.85;59.84;94381.88;5023939;28;20096;-77
2022/01/23 07:40:08;;;;;;;10.35;4.28;;;;;;;-5.75;59.61;94378.91;5024096;28;20021;-77
2022/01/23 07:42:34;;;;;;;9.45;3.78;;;;;;;-5.69;59.17;94383.31;5024044;28;20026;-78
2022/01/23 07:45:00;;;;;;;7.20;3.50;;;;;;;-5.72;58.71;94383.69;5023667;28;20036;-79
2022/01/23 07:47:26;;;;;;;10.45;3.40;;;;;;;-5.73;58.50;94384.69;5023997;28;20029;-79
2022/01/23 07:49:51;;;;;;;8.27;4.88;;;;;;;-5.65;58.63;94377.50;5023947;28;20101;-79
2022/01/23 07:52:17;;;;;;;8.02;3.28;;;;;;;-5.63;58.39;94374.72;5039252;28;20340;-81
2022/01/23 07:54:43;;;;;;;12.05;4.13;;;;;;;-5.63;58.63;94377.31;5023652;28;20029;-79
2022/01/23 07:57:09;;;;;;;5.03;2.55;;;;;;;-5.65;57.79;94371.50;5023551;28;20301;-78
2022/01/23 07:59:35;;;;;;;9.73;4.00;;;;;;;-5.56;57.95;94367.69;5023649;28;20025;-79
2022/01/23 08:02:01;;;;;;;8.38;3.75;;;;;;;-5.63;57.66;94377.31;5023494;28;20026;-79
2022/01/23 08:04:26;;;;;;;8.38;3.22;;;;;;;-5.57;57.92;94376.50;5023484;28;20026;-78
2022/01/23 08:07:07;;;;;;;8.85;3.97;;;;;;;-5.41;58.28;94374.50;5038822;28;20072;-83
2022/01/23 08:09:33;;;;;;;7.97;4.30;;;;;;;-5.31;58.01;94375.69;5023221;28;20029;-83
2022/01/23 08:11:58;;;;;;;7.72;4.32;;;;;;;-5.26;57.51;94375.09;5023410;28;20096;-83
2022/01/23 08:14:23;;;;;;;10.02;4.57;;;;;;;-5.01;57.30;94396.03;5023419;28;20119;-90
2022/01/23 08:16:49;;;;;;;8.55;4.50;;;;;;;-5.12;56.18;94389.66;5023449;28;20032;-75
2022/01/23 08:19:14;;;;;;;10.50;3.78;;;;;;;-5.10;56.85;94392.84;5022968;28;20053;-75
2022/01/23 08:21:40;;;;;;;9.48;3.78;;;;;;;-5.02;56.75;94380.66;5022886;28;20025;-75
2022/01/23 08:24:06;;;;;;;8.18;4.40;;;;;;;-4.98;56.09;94385.22;5023296;28;20106;-75
2022/01/23 08:26:31;;;;;;;6.78;3.13;;;;;;;-5.04;55.97;94383.44;5023027;28;20044;-75
2022/01/23 08:28:56;;;;;;;12.90;3.45;;;;;;;-5.21;57.65;94375.28;5023093;28;20034;-75
2022/01/23 08:31:22;;;;;;;10.05;4.10;;;;;;;-5.16;56.93;94385.06;5023021;28;20060;-75
2022/01/23 08:33:48;;;;;;;7.15;3.38;;;;;;;-5.19;56.70;94380.25;5023118;28;20058;-75
2022/01/23 08:36:13;;;;;;;11.95;4.85;;;;;;;-5.10;57.14;94384.25;5023078;28;20033;-75
2022/01/23 08:38:39;;;;;;;8.77;4.15;;;;;;;-5.10;56.52;94397.25;5023017;28;20264;-75
2022/01/23 08:43:50;;;;;;;8.35;3.75;;;;;;;-4.90;56.37;94390.22;5022875;28;20077;-76
2022/01/23 08:46:16;;;;;;;9.82;4.25;;;;;;;-4.87;55.82;94391.59;5022025;28;20104;-75
2022/01/23 08:48:42;;;;;;;12.35;4.15;;;;;;;-4.88;55.35;94379.63;5020560;28;20084;-75
2022/01/23 08:51:09;;;;;;;9.80;4.80;;;;;;;-4.84;57.00;94367.81;5021592;28;20022;-75
2022/01/23 08:53:34;;;;;;;11.40;4.45;;;;;;;-4.82;54.71;94368.41;5021223;28;20033;-75
2022/01/23 08:56:00;;;;;;;8.45;3.00;;;;;;;-4.96;55.03;94374.63;5022071;28;20017;-75
2022/01/23 08:58:26;;;;;;;10.82;4.50;;;;;;;-4.88;55.49;94374.41;5022675;28;20029;-75
2022/01/23 09:00:51;;;;;;;7.25;4.45;;;;;;;-4.76;55.50;94366.75;5022331;28;20018;-75
2022/01/23 09:03:17;;;;;;;7.20;3.42;;;;;;;-4.58;54.43;94368.69;5022212;28;20390;-75
2022/01/23 09:05:42;;;;;;;8.60;4.10;;;;;;;-4.58;55.25;94397.31;5022681;28;20025;-75
2022/01/23 09:08:08;;;;;;;8.95;3.95;;;;;;;-4.66;54.90;94378.34;5022562;28;20025;-75
2022/01/23 09:10:41;;;;;;;8.00;3.75;;;;;;;-4.71;54.64;94378.16;5022599;28;20021;-75
2022/01/23 09:13:14;;;;;;;9.10;4.32;;;;;;;-4.72;54.49;94384.38;5022338;28;20099;-75
2022/01/23 09:15:39;;;;;;;8.13;3.63;;;;;;;-4.64;54.55;94381.53;5022566;28;20328;-75
2022/01/23 09:18:05;;;;;;;9.50;3.72;;;;;;;-4.73;53.74;94393.16;5022479;28;20037;-75
2022/01/23 09:20:30;;;;;;;8.05;3.53;;;;;;;-4.78;54.81;94382.59;5023283;28;20100;-75
2022/01/23 09:22:56;;;;;;;14.05;3.95;;;;;;;-4.66;54.66;94378.34;5026612;28;20018;-75
2022/01/23 09:25:22;;;;;;;10.00;3.65;;;;;;;-4.66;54.63;94370.53;5026573;28;20076;-75
2022/01/23 09:27:48;;;;;;;9.45;4.45;;;;;;;-4.75;54.08;94370.97;5026494;28;20045;-75
2022/01/23 09:30:19;;;;;;;11.23;4.80;;;;;;;-4.68;55.03;94369.94;5026107;28;20041;-75
2022/01/23 09:32:47;;;;;;;7.05;3.80;;;;;;;-4.60;53.68;94366.28;5026288;28;20104;-75
2022/01/23 09:35:14;;;;;;;10.52;4.22;;;;;;;-4.68;53.58;94363.91;5026373;28;20018;-75
2022/01/23 09:37:40;;;;;;;7.72;3.80;;;;;;;-4.72;53.34;94366.16;5026239;28;20197;-75
2022/01/23 09:40:06;;;;;;;9.70;4.28;;;;;;;-4.62;54.04;94365.69;5041329;28;20096;-75
2022/01/23 09:42:42;;;;;;;6.95;2.75;;;;;;;-4.65;53.72;94368.72;5024775;28;20380;-75
2022/01/23 09:45:11;;;;;;;9.95;3.80;;;;;;;-4.59;53.85;94361.91;5026042;28;20032;-75
2022/01/23 09:47:38;;;;;;;6.13;2.88;;;;;;;-4.69;53.24;94370.94;5025833;28;20021;-75
2022/01/23 09:50:06;;;;;;;9.48;3.25;;;;;;;-4.71;53.86;94359.16;5025761;28;20037;-75
2022/01/23 09:52:34;;;;;;;7.20;3.38;;;;;;;-4.75;54.65;94339.75;5025985;28;20022;-75
2022/01/23 09:55:09;;;;;;;11.52;3.20;;;;;;;-4.61;54.89;94340.50;5025900;28;20060;-75
2022/01/23 09:57:37;;;;;;;5.28;2.53;;;;;;;-4.63;54.19;94351.91;5025886;28;20093;-74
2022/01/23 10:00:07;;;;;;;8.00;3.55;;;;;;;-4.68;54.95;94351.72;5025570;28;20072;-74
2022/01/23 10:02:33;;;;;;;6.53;2.65;;;;;;;-4.72;54.54;94349.72;5025877;28;20034;-75
2022/01/23 10:04:59;;;;;;;7.18;2.83;;;;;;;-4.84;52.75;94345.19;5025612;28;20264;-75
2022/01/23 10:07:24;;;;;;;9.85;3.17;;;;;;;-4.86;53.41;94347.19;5025780;28;20021;-75
2022/01/23 10:09:56;;;;;;;7.88;2.97;;;;;;;-4.73;54.83;94335.94;5025499;28;20026;-75
2022/01/23 10:12:26;;;;;;;;;;;;;;;-4.66;53.65;94341.09;5026036;28;20030;-75
2022/01/23 10:14:53;;;;;;;11.05;3.28;;;;;;;-4.67;52.52;94340.31;5025427;28;19955;-75
2022/01/23 10:17:18;;;;;;;5.32;2.47;;;;;;;-4.75;52.80;94335.34;5025481;28;20228;-75
2022/01/23 10:19:45;;;;;;;7.35;2.38;;;;;;;-4.78;53.18;94335.78;5040552;28;20072;-74
2022/01/23 10:22:12;;;;;;;6.63;3.08;;;;;;;-4.89;53.21;94326.00;5025239;28;20026;-74
2022/01/23 10:24:38;;;;;;;7.88;3.15;;;;;;;-4.85;53.04;94321.97;5025308;28;20033;-74
2022/01/23 10:27:03;;;;;;;10.45;3.33;;;;;;;-4.86;53.51;94328.19;5025243;28;20026;-74
2022/01/23 10:29:34;;;;;;;10.88;3.45;;;;;;;-4.93;53.18;94319.59;5025239;28;20017;-74
2022/01/23 10:32:04;;;;;;;7.57;3.47;;;;;;;-4.86;53.82;94313.38;5024484;28;20025;-74
2022/01/23 10:34:45;;;;;;;9.85;3.03;;;;;;;-4.79;52.77;94313.34;5040303;28;20028;-74
2022/01/23 10:37:12;;;;;;;8.45;3.50;;;;;;;-4.78;53.59;94314.97;5040399;28;20026;-74
2022/01/23 10:39:45;;;;;;;9.48;2.92;;;;;;;-4.72;53.54;94313.31;5024876;28;20021;-75
2022/01/23 10:48:13;;;;;;;7.60;3.50;;;;;;;-4.65;53.08;94316.69;5024966;28;20220;-74
2022/01/23 10:50:38;;;;;;;11.15;2.97;;;;;;;-4.54;53.35;94291.81;5024623;28;20026;-74
2022/01/23 10:53:04;;;;;;;8.90;3.72;;;;;;;-4.50;52.15;94287.81;5024726;28;20048;-75
2022/01/23 10:55:32;;;;;;;6.03;2.75;;;;;;;-4.57;51.58;94287.06;5024836;28;20100;-74
2022/01/23 10:58:01;;;;;;;6.40;2.67;;;;;;;-4.51;51.63;94296.63;5024460;28;20311;-74
2022/01/23 11:00:28;;;;;;;7.20;2.65;;;;;;;-4.64;51.46;94284.47;5024240;28;20050;-75
2022/01/23 11:02:55;;;;;;;4.50;2.05;;;;;;;-4.72;50.42;94285.53;5024618;28;20040;-75
2022/01/23 11:05:34;;;;;;;8.15;3.63;;;;;;;-4.68;51.31;94278.91;5024379;28;20022;-75
2022/01/23 11:08:01;;;;;;;8.32;3.13;;;;;;;-4.59;51.26;94289.06;5024460;28;20193;-74
2022/01/23 11:10:27;;;;;;;6.07;2.28;;;;;;;-4.53;51.50;94288.22;5024677;28;20220;-75
2022/01/23 11:18:33;;;;;;;6.22;2.83;;;;;;;-4.46;51.38;94268.16;5024525;28;20231;-75
2022/01/23 11:21:13;;;;;;;6.20;2.53;;;;;;;-4.40;50.72;94282.94;5024308;28;20021;-74
2022/01/23 11:23:39;;;;;;;10.00;2.92;;;;;;;-4.48;50.07;94265.78;5024376;28;20228;-75
2022/01/23 11:26:10;;;;;;;4.20;2.10;;;;;;;-4.41;50.66;94264.94;5024053;28;20022;-75
2022/01/23 11:28:41;;;;;;;7.22;2.75;;;;;;;-4.38;50.46;94256.72;5024167;28;20025;-75
2022/01/23 11:31:09;;;;;;;6.50;3.42;;;;;;;-4.41;49.91;94259.75;5024132;28;20072;-75
2022/01/23 11:33:34;;;;;;;8.82;3.35;;;;;;;-4.24;50.59;94255.59;5039424;28;20022;-75
2022/01/23 11:36:01;;;;;;;9.32;3.33;;;;;;;-4.21;50.20;94236.97;5024126;28;20036;-75
2022/01/23 11:38:27;;;;;;;15.80;2.60;;;;;;;-4.19;49.59;94260.19;5024016;28;20029;-75
2022/01/23 11:54:52;;;;;;;7.57;2.72;;;;;;;-4.44;49.10;94234.94;5023699;28;20242;-75
2022/01/23 11:57:45;;;;;;;12.93;2.42;;;;;;;-4.38;48.72;94238.50;5023384;28;20017;-74
2022/01/23 12:00:23;;;;;;;3.55;1.88;;;;;;;-4.56;48.39;94221.81;5023206;28;20030;-74
2022/01/23 12:03:08;;;;;;;5.80;1.98;;;;;;;-4.53;49.15;94218.78;5023569;28;20048;-74
2022/01/23 12:05:37;;;;;;;9.45;3.15;;;;;;;-4.44;49.90;94220.13;5023257;28;20046;-74
2022/01/23 12:08:35;;;;;;;12.23;3.33;;;;;;;-4.22;49.53;94222.34;5023233;28;20022;-74
2022/01/23 12:13:57;;;;;;;5.63;2.53;;;;;;;-4.26;50.16;94205.56;5023055;28;20268;-75
2022/01/23 12:16:52;;;;;;;6.65;2.85;;;;;;;-4.20;49.58;94209.94;5022919;28;20021;-75
2022/01/23 12:19:20;;;;;;;8.32;3.05;;;;;;;-4.27;49.96;94207.38;5022822;28;20045;-75
2022/01/23 12:21:47;;;;;;;12.32;3.53;;;;;;;-4.24;50.38;94203.56;5023033;28;20220;-75
2022/01/23 12:24:15;;;;;;;6.90;3.00;;;;;;;-4.12;50.38;94211.47;5022561;28;20315;-75
2022/01/23 12:26:45;;;;;;;6.65;2.92;;;;;;;-4.21;50.47;94212.72;5022779;28;20056;-75
2022/01/23 12:29:27;;;;;;;7.78;3.05;;;;;;;-4.20;50.45;94235.16;5022600;28;20026;-75
2022/01/23 12:32:19;;;;;;;4.40;2.42;;;;;;;-4.33;49.53;94221.25;5022794;28;20045;-75
2022/01/23 12:34:49;;;;;;;11.60;3.25;;;;;;;-4.39;50.81;94231.72;5022712;28;20022;-75
2022/01/23 12:37:15;;;;;;;5.93;2.60;;;;;;;-4.40;50.24;94220.47;5022646;28;20022;-74
2022/01/23 12:39:40;;;;;;;4.53;2.00;;;;;;;-4.49;50.45;94234.78;5023030;28;20040;-75
2022/01/23 12:42:06;;;;;;;7.20;3.05;;;;;;;-4.45;51.28;94233.34;5022943;28;20312;-75
2022/01/23 12:44:34;;;;;;;6.38;2.92;;;;;;;-4.40;52.25;94227.50;5022827;28;20322;-75
2022/01/23 12:47:03;;;;;;;4.63;2.28;;;;;;;-4.55;51.83;94230.41;5022506;28;20029;-75
2022/01/23 12:49:35;;;;;;;6.28;2.50;;;;;;;-4.45;51.22;94231.53;5022570;28;20228;-75
2022/01/23 12:52:09;;;;;;;6.57;3.15;;;;;;;-4.51;51.78;94224.56;5022730;28;20092;-75
2022/01/23 12:54:47;;;;;;;6.32;3.03;;;;;;;-4.53;52.43;94231.78;5022588;28;20025;-76
2022/01/23 12:57:15;;;;;;;8.85;3.20;;;;;;;-4.45;52.29;94235.94;5022707;28;20037;-76
2022/01/23 12:59:43;;;;;;;8.05;3.22;;;;;;;-4.47;53.12;94230.16;5022679;28;20024;-76
2022/01/23 13:02:16;;;;;;;5.45;2.47;;;;;;;-4.46;52.91;94247.34;5022306;28;20018;-76
2022/01/23 13:04:45;;;;;;;4.28;2.65;;;;;;;-4.60;52.35;94236.22;5022545;28;20026;-76
2022/01/23 13:07:23;;;;;;;5.32;2.33;;;;;;;-4.63;51.49;94234.06;5022722;28;20132;-76
2022/01/23 13:10:04;;;;;;;5.00;2.70;;;;;;;-4.74;51.79;94230.31;5022506;28;20033;-76
2022/01/23 13:31:44;;;;;;;8.10;2.22;;;;;;;-4.64;52.29;94248.88;5022365;28;20041;-76
2022/01/23 13:34:20;;;;;;;9.15;2.40;;;;;;;-4.65;52.19;94249.88;5022333;28;20228;-76
2022/01/23 13:36:57;;;;;;;12.30;3.00;;;;;;;-4.68;53.02;94247.69;5022129;28;20018;-75
2022/01/23 13:39:53;;;;;;;4.80;2.38;;;;;;;-4.72;53.50;94236.13;5037416;28;20029;-75
2022/01/23 13:42:40;;;;;;;3.38;1.75;;;;;;;-4.63;52.83;94241.84;5022329;28;20038;-75
2022/01/23 13:51:28;;;;;;;15.55;3.00;;;;;;;-4.77;54.74;94237.75;5022093;28;20033;-75
2022/01/23 13:59:33;;;;;;;7.80;3.60;;;;;;;-4.71;53.81;94255.91;5022140;28;20017;-75
2022/01/23 14:04:40;;;;;;;7.65;3.10;;;;;;;-4.72;54.74;94267.31;5022051;28;20021;-76
2022/01/23 14:07:06;;;;;;;7.30;2.42;;;;;;;-4.79;53.35;94250.94;5023685;28;20239;-75
2022/01/23 14:09:43;;;;;;;6.85;2.88;;;;;;;-4.85;53.71;94262.19;5025567;28;20064;-75
2022/01/23 14:12:15;;;;;;;8.40;2.85;;;;;;;-4.79;54.33;94245.75;5024328;28;20028;-75
2022/01/23 14:15:03;;;;;;;8.43;3.83;;;;;;;-4.76;54.01;94255.75;5025402;28;20296;-75
2022/01/23 14:17:28;;;;;;;4.65;2.08;;;;;;;-4.92;53.54;94275.22;5041053;28;20022;-75
2022/01/23 14:20:08;;;;;;;7.20;3.17;;;;;;;-4.92;54.14;94274.41;5025398;28;20021;-76
2022/01/23 14:22:39;;;;;;;5.38;2.38;;;;;;;-4.96;54.17;94255.84;5025381;28;20093;-75
2022/01/23 14:25:11;;;;;;;3.00;1.80;;;;;;;-4.93;54.64;94257.22;5025306;28;20034;-75
2022/01/23 14:27:37;;;;;;;6.68;3.08;;;;;;;-4.99;54.60;94258.81;5025265;28;20022;-75
2022/01/23 14:30:09;;;;;;;7.20;2.50;;;;;;;-5.02;54.65;94261.06;5025177;28;20021;-75
2022/01/23 14:32:46;;;;;;;8.27;3.53;;;;;;;-5.07;54.82;94272.06;5040653;28;20220;-75
2022/01/23 14:35:29;;;;;;;9.68;3.90;;;;;;;-4.98;55.14;94281.25;5025163;28;20022;-75
2022/01/23 14:38:11;;;;;;;19.38;3.75;;;;;;;-5.08;55.70;94276.47;5025130;28;20022;-75
2022/01/23 14:40:37;;;;;;;10.77;4.40;;;;;;;-5.19;55.97;94276.31;5024876;28;20209;-75
2022/01/23 14:43:03;;;;;;;7.85;3.42;;;;;;;-5.06;56.12;94277.06;5024866;28;20021;-76
2022/01/23 14:45:30;;;;;;;5.88;2.65;;;;;;;-5.10;56.34;94270.69;5025063;28;20362;-75
2022/01/23 14:47:56;;;;;;;6.47;3.10;;;;;;;-5.18;56.85;94283.91;5024831;28;20025;-76
2022/01/23 14:50:25;;;;;;;5.25;3.05;;;;;;;-5.28;57.25;94296.53;5024468;28;20132;-76
2022/01/23 14:52:51;;;;;;;14.85;3.15;;;;;;;-5.36;56.91;94268.16;5024323;28;20053;-75
2022/01/23 14:55:17;;;;;;;10.02;4.00;;;;;;;-5.40;58.08;94308.56;5024742;28;20029;-75
2022/01/23 14:57:44;;;;;;;7.10;3.17;;;;;;;-5.38;57.64;94280.56;5024816;28;20032;-75
2022/01/23 15:00:12;;;;;;;7.75;3.40;;;;;;;-5.31;57.51;94276.13;5024706;28;20192;-76
2022/01/23 15:02:37;;;;;;;7.05;3.47;;;;;;;-5.39;57.69;94279.78;5024580;28;20339;-75
2022/01/23 15:05:03;;;;;;;7.03;3.63;;;;;;;-5.44;57.94;94282.97;5024442;28;20025;-75
2022/01/23 15:07:41;;;;;;;11.38;4.03;;;;;;;-5.37;58.19;94284.75;5024408;28;20216;-75